Time;durP1;ratioP1;P1;durP2;ratioP2;P2;SDS_P1;SDS_P2;PMS_P1;PMS_P2;Temp;Humidity;BMP_temperature;BMP_pressure;BME280_temperature;BME280_humidity;BME280_pressure;Samples;Min_cycle;Max_cycle;Signal;HPM_P1;HPM_P2
2021/10/17 00:00:07;;;;;;;2.90;1.13;;;13.50;85.80;;;;;;5022457;28;20133;-71
2021/10/17 00:02:39;;;;;;;3.15;1.38;;;13.50;85.80;;;;;;5029508;28;20076;-71
2021/10/17 00:05:08;;;;;;;3.78;1.38;;;13.50;85.70;;;;;;5032122;28;20021;-71
2021/10/17 00:07:34;;;;;;;9.77;2.22;;;13.50;85.70;;;;;;5024012;28;20112;-71
2021/10/17 00:09:59;;;;;;;5.05;2.13;;;13.60;85.80;;;;;;5029986;28;20442;-72
2021/10/17 00:12:25;;;;;;;8.57;2.75;;;13.50;85.70;;;;;;5025546;28;20033;-72
2021/10/17 00:14:51;;;;;;;7.32;3.10;;;13.50;85.70;;;;;;5029915;28;20374;-72
2021/10/17 00:17:17;;;;;;;4.43;2.05;;;13.50;85.70;;;;;;5026177;28;20045;-71
2021/10/17 00:19:43;;;;;;;12.95;3.45;;;13.50;85.70;;;;;;5026817;28;20036;-71
2021/10/17 00:22:08;;;;;;;4.93;2.47;;;13.50;85.70;;;;;;5022776;28;20480;-71
2021/10/17 00:24:34;;;;;;;1.75;1.42;;;13.50;85.70;;;;;;5024523;28;20026;-72
2021/10/17 00:27:00;;;;;;;6.88;2.15;;;13.50;85.60;;;;;;5018960;28;20030;-71
2021/10/17 00:29:25;;;;;;;6.50;2.45;;;13.50;85.60;;;;;;5027472;28;20030;-71
2021/10/17 00:31:51;;;;;;;1.35;1.13;;;13.40;85.50;;;;;;5015558;28;20397;-71
2021/10/17 00:34:18;;;;;;;6.72;2.88;;;13.50;85.70;;;;;;5022767;28;20025;-71
2021/10/17 00:36:43;;;;;;;5.13;1.98;;;13.40;85.60;;;;;;5022827;28;20145;-71
2021/10/17 00:39:12;;;;;;;6.43;2.45;;;13.50;86.30;;;;;;5026956;28;20056;-71
2021/10/17 00:41:38;;;;;;;4.07;1.75;;;13.40;85.70;;;;;;5021745;28;20464;-71
2021/10/17 00:44:04;;;;;;;9.73;2.95;;;13.40;85.70;;;;;;5031053;28;20071;-71
2021/10/17 00:46:30;;;;;;;5.20;1.50;;;13.40;85.80;;;;;;5025032;28;20036;-71
2021/10/17 00:48:56;;;;;;;1.58;1.48;;;13.40;85.80;;;;;;5021296;28;20029;-71
2021/10/17 00:51:21;;;;;;;3.03;1.88;;;13.40;85.80;;;;;;5028248;28;20408;-71
2021/10/17 00:53:48;;;;;;;5.18;2.20;;;13.40;85.90;;;;;;5022069;28;20033;-71
2021/10/17 00:56:16;;;;;;;10.10;4.07;;;13.40;85.90;;;;;;5015208;28;20025;-71
2021/10/17 00:58:42;;;;;;;5.28;2.90;;;13.40;85.90;;;;;;5020269;28;20030;-71
2021/10/17 01:01:08;;;;;;;6.75;2.90;;;13.40;85.90;;;;;;5019432;28;20466;-71
2021/10/17 01:03:34;;;;;;;7.95;2.65;;;13.40;85.90;;;;;;5011578;28;20079;-71
2021/10/17 01:05:59;;;;;;;2.28;1.45;;;13.40;85.90;;;;;;5021317;28;20029;-72
2021/10/17 01:08:25;;;;;;;10.15;3.28;;;13.40;85.90;;;;;;5029054;28;20026;-72
2021/10/17 01:10:56;;;;;;;7.35;3.17;;;13.40;85.90;;;;;;5021387;28;20520;-71
2021/10/17 01:13:23;;;;;;;6.05;3.15;;;13.30;85.90;;;;;;5024159;28;20032;-72
2021/10/17 01:15:54;;;;;;;8.30;2.83;;;13.40;85.90;;;;;;5029589;28;20025;-72
2021/10/17 01:18:24;;;;;;;7.20;2.30;;;13.40;85.90;;;;;;5021729;28;20081;-71
2021/10/17 01:20:52;;;;;;;4.28;2.58;;;13.30;85.90;;;;;;5019296;28;20492;-71
2021/10/17 01:23:19;;;;;;;3.95;1.95;;;13.30;85.90;;;;;;5027871;28;20033;-72
2021/10/17 01:25:45;;;;;;;10.43;3.70;;;13.30;86.00;;;;;;5029283;28;20396;-71
2021/10/17 01:28:12;;;;;;;11.40;4.28;;;13.30;86.00;;;;;;5029421;28;20030;-72
2021/10/17 01:30:38;;;;;;;15.68;5.15;;;13.30;86.00;;;;;;5023762;28;20022;-71
2021/10/17 01:33:04;;;;;;;4.32;1.95;;;13.30;86.00;;;;;;5014034;28;20029;-72
2021/10/17 01:35:30;;;;;;;10.80;4.80;;;13.30;86.00;;;;;;5020845;28;20491;-71
2021/10/17 01:37:56;;;;;;;8.35;3.60;;;13.30;86.00;;;;;;5021885;28;20128;-71
2021/10/17 01:40:23;;;;;;;2.95;2.25;;;13.30;85.90;;;;;;5026520;28;20026;-72
2021/10/17 01:42:49;;;;;;;5.75;2.53;;;13.30;85.90;;;;;;5026151;28;20080;-72
2021/10/17 01:45:17;;;;;;;6.40;3.28;;;13.30;85.90;;;;;;5023598;28;20033;-71
2021/10/17 01:47:47;;;;;;;7.35;3.22;;;13.30;85.90;;;;;;5023797;28;20508;-71
2021/10/17 01:50:16;;;;;;;5.97;3.55;;;13.30;86.00;;;;;;5016926;28;20029;-71
2021/10/17 01:52:42;;;;;;;6.22;3.58;;;13.30;86.00;;;;;;5020629;28;20033;-71
2021/10/17 01:55:08;;;;;;;7.35;2.92;;;13.30;85.90;;;;;;5022290;28;20030;-71
2021/10/17 01:57:35;;;;;;;5.32;2.55;;;13.30;85.90;;;;;;5019482;28;20033;-71
2021/10/17 02:00:01;;;;;;;5.63;2.95;;;13.30;86.00;;;;;;5014047;28;20067;-71
2021/10/17 02:02:39;;;;;;;16.27;4.15;;;13.30;85.90;;;;;;5015054;28;20092;-71
2021/10/17 02:05:07;;;;;;;10.68;4.45;;;13.30;85.90;;;;;;5021241;28;20387;-71
2021/10/17 02:07:33;;;;;;;8.65;3.20;;;13.30;85.90;;;;;;5017403;28;20033;-71
2021/10/17 02:10:00;;;;;;;8.45;4.63;;;13.30;85.90;;;;;;5015637;28;20413;-71
2021/10/17 02:12:26;;;;;;;8.70;4.47;;;13.20;85.80;;;;;;5024530;28;20022;-71
2021/10/17 02:14:53;;;;;;;10.30;3.70;;;13.30;85.90;;;;;;5027358;28;20310;-71
2021/10/17 02:17:22;;;;;;;7.85;2.50;;;13.20;85.80;;;;;;5012828;28;20037;-71
2021/10/17 02:19:49;;;;;;;18.95;4.45;;;13.20;85.80;;;;;;5011344;28;20022;-72
2021/10/17 02:22:16;;;;;;;5.15;2.80;;;13.20;85.80;;;;;;5015222;28;20026;-71
2021/10/17 02:24:45;;;;;;;6.97;3.30;;;13.20;85.80;;;;;;5018795;28;20022;-72
2021/10/17 02:27:11;;;;;;;5.90;2.85;;;13.20;85.90;;;;;;5020330;28;20105;-71
2021/10/17 02:29:42;;;;;;;7.88;3.38;;;13.10;86.00;;;;;;5013790;28;20482;-72
2021/10/17 02:32:18;;;;;;;7.15;3.83;;;13.10;86.10;;;;;;5028672;28;20025;-71
2021/10/17 02:34:45;;;;;;;4.78;3.08;;;13.10;86.30;;;;;;5029528;28;20022;-71
2021/10/17 02:37:11;;;;;;;5.82;3.28;;;13.10;86.40;;;;;;5027946;28;20049;-71
2021/10/17 02:39:37;;;;;;;16.67;2.83;;;13.00;86.30;;;;;;5027096;28;20496;-71
2021/10/17 02:42:03;;;;;;;7.20;3.00;;;13.10;86.40;;;;;;5027430;28;21311;-71
2021/10/17 02:44:29;;;;;;;7.13;3.13;;;13.00;86.30;;;;;;5023833;28;20543;-71
2021/10/17 02:46:57;;;;;;;10.18;3.08;;;13.10;86.40;;;;;;5044339;28;20385;-71
2021/10/17 02:49:25;;;;;;;3.60;2.45;;;13.00;86.30;;;;;;5021095;28;20485;-71
2021/10/17 02:51:51;;;;;;;5.88;2.92;;;13.00;86.30;;;;;;5020629;28;20088;-70
2021/10/17 02:54:19;;;;;;;4.40;2.30;;;13.10;86.40;;;;;;5014839;28;20057;-71
2021/10/17 02:56:48;;;;;;;9.43;3.33;;;13.10;86.50;;;;;;5018619;28;20037;-71
2021/10/17 02:59:19;;;;;;;8.73;4.32;;;13.00;86.50;;;;;;5022165;28;20061;-71
2021/10/17 03:01:45;;;;;;;6.03;3.47;;;13.00;86.50;;;;;;5020903;28;20481;-71
2021/10/17 03:04:10;;;;;;;7.38;3.55;;;13.00;86.50;;;;;;5019834;28;20057;-72
2021/10/17 03:06:36;;;;;;;11.50;3.58;;;13.00;86.60;;;;;;5032288;28;20116;-73
2021/10/17 03:09:02;;;;;;;3.40;2.38;;;13.00;86.70;;;;;;5045401;28;20022;-72
2021/10/17 03:11:28;;;;;;;7.60;3.47;;;12.90;86.70;;;;;;5034329;28;20068;-70
2021/10/17 03:13:55;;;;;;;7.28;3.58;;;12.90;86.70;;;;;;5027129;28;20021;-74
2021/10/17 03:16:30;;;;;;;13.98;5.53;;;12.90;86.80;;;;;;5014126;28;20040;-71
2021/10/17 03:18:56;;;;;;;12.98;4.78;;;13.00;86.90;;;;;;5026389;28;20057;-71
2021/10/17 03:21:21;;;;;;;6.25;3.50;;;13.00;87.00;;;;;;5019827;28;20017;-71
2021/10/17 03:23:49;;;;;;;5.30;3.42;;;13.00;86.90;;;;;;5031185;28;20060;-71
2021/10/17 03:26:14;;;;;;;5.82;3.50;;;13.00;86.90;;;;;;5015295;28;20398;-71
2021/10/17 03:28:43;;;;;;;8.57;3.83;;;13.00;86.90;;;;;;5024249;28;20028;-71
2021/10/17 03:31:09;;;;;;;10.25;4.00;;;12.90;86.90;;;;;;5019824;28;20021;-71
2021/10/17 03:33:35;;;;;;;10.95;4.38;;;12.90;86.90;;;;;;5026147;28;20083;-71
2021/10/17 03:36:08;;;;;;;4.35;1.77;;;12.90;87.00;;;;;;5024190;28;20067;-71
2021/10/17 03:38:35;;;;;;;9.93;5.00;;;12.90;87.00;;;;;;5024821;28;20045;-71
2021/10/17 03:41:02;;;;;;;12.95;5.53;;;12.90;87.20;;;;;;5029351;28;20032;-71
2021/10/17 03:43:32;;;;;;;7.45;4.70;;;12.90;87.20;;;;;;5017429;28;20469;-71
2021/10/17 03:46:02;;;;;;;5.78;2.20;;;13.00;87.30;;;;;;5020391;28;20367;-71
2021/10/17 03:48:30;;;;;;;7.65;3.67;;;12.90;87.10;;;;;;5028700;28;20022;-71
2021/10/17 03:50:58;;;;;;;10.15;4.45;;;13.00;87.10;;;;;;5032271;28;20025;-71
2021/10/17 03:53:24;;;;;;;6.45;3.20;;;13.00;87.20;;;;;;5019871;28;20033;-71
2021/10/17 03:55:49;;;;;;;11.50;3.63;;;13.00;87.30;;;;;;5028258;28;20040;-71
2021/10/17 03:58:15;;;;;;;16.30;3.25;;;12.90;87.30;;;;;;5023174;28;20034;-71
2021/10/17 04:00:43;;;;;;;9.43;2.92;;;12.90;87.50;;;;;;5029498;28;20072;-71
2021/10/17 04:03:09;;;;;;;7.43;3.67;;;12.90;87.70;;;;;;5031748;28;20048;-71
2021/10/17 04:05:36;;;;;;;10.05;3.75;;;12.90;87.80;;;;;;5019916;28;20470;-71
2021/10/17 04:08:02;;;;;;;10.40;4.40;;;12.90;88.00;;;;;;5026778;28;20313;-71
2021/10/17 04:10:32;;;;;;;17.50;3.28;;;12.90;88.10;;;;;;5018132;28;20025;-71
2021/10/17 04:12:58;;;;;;;11.30;4.03;;;12.90;88.20;;;;;;5022896;28;20556;-71
2021/10/17 04:15:24;;;;;;;8.45;3.58;;;12.80;88.20;;;;;;5024433;28;20116;-71
2021/10/17 04:17:50;;;;;;;8.65;3.78;;;12.80;88.30;;;;;;5023752;28;20038;-71
2021/10/17 04:20:15;;;;;;;9.40;3.58;;;12.80;88.30;;;;;;5025946;28;20021;-71
2021/10/17 04:22:41;;;;;;;7.43;4.22;;;12.80;88.30;;;;;;5019720;28;20427;-71
2021/10/17 04:25:08;;;;;;;11.40;4.80;;;12.80;88.50;;;;;;5026510;28;20491;-71
2021/10/17 04:27:36;;;;;;;6.45;3.35;;;12.80;88.50;;;;;;5017245;28;20477;-71
2021/10/17 04:30:04;;;;;;;5.93;3.13;;;12.80;88.30;;;;;;5023556;28;20034;-71
2021/10/17 04:32:30;;;;;;;14.35;6.15;;;12.80;88.30;;;;;;5024907;28;20025;-71
2021/10/17 04:34:59;;;;;;;10.30;3.30;;;12.80;88.30;;;;;;5014995;28;20389;-71
2021/10/17 04:37:28;;;;;;;7.45;2.58;;;12.80;88.20;;;;;;5023386;28;20126;-71
2021/10/17 04:39:53;;;;;;;13.50;3.00;;;12.80;88.20;;;;;;5024260;28;20036;-71
2021/10/17 04:42:19;;;;;;;5.15;2.28;;;12.80;88.10;;;;;;5030718;28;20037;-71
2021/10/17 04:44:45;;;;;;;4.90;2.92;;;12.90;88.20;;;;;;5025384;28;20468;-71
2021/10/17 04:47:11;;;;;;;6.05;2.88;;;12.90;88.20;;;;;;5025537;28;20017;-71
2021/10/17 04:49:38;;;;;;;4.57;2.28;;;12.90;88.10;;;;;;5031137;28;20469;-71
2021/10/17 04:52:04;;;;;;;5.07;2.70;;;12.80;88.10;;;;;;5021863;28;20107;-71
2021/10/17 04:54:29;;;;;;;7.00;3.47;;;12.80;88.20;;;;;;5026763;28;20029;-71
2021/10/17 04:56:56;;;;;;;7.80;3.50;;;12.80;88.10;;;;;;5012632;28;20045;-71
2021/10/17 04:59:23;;;;;;;6.65;2.63;;;12.80;88.10;;;;;;5023119;28;20112;-71
2021/10/17 05:01:53;;;;;;;12.65;4.47;;;12.80;88.10;;;;;;5026175;28;20400;-71
2021/10/17 05:04:19;;;;;;;9.00;3.42;;;12.90;88.10;;;;;;5021496;28;20021;-71
2021/10/17 05:06:45;;;;;;;13.13;5.03;;;12.80;88.00;;;;;;5025236;28;20021;-71
2021/10/17 05:09:11;;;;;;;13.73;5.55;;;12.90;88.00;;;;;;5019259;28;20505;-71
2021/10/17 05:11:37;;;;;;;8.98;4.28;;;12.90;88.00;;;;;;5017128;28;20034;-71
2021/10/17 05:14:04;;;;;;;9.82;4.03;;;12.90;88.40;;;;;;5019930;28;20033;-71
2021/10/17 05:16:29;;;;;;;18.27;5.93;;;12.90;87.70;;;;;;5017362;28;20079;-71
2021/10/17 05:18:55;;;;;;;4.47;2.35;;;12.90;87.60;;;;;;5026759;28;20025;-71
2021/10/17 05:21:21;;;;;;;6.78;3.22;;;12.90;87.50;;;;;;5011472;28;20028;-71
2021/10/17 05:23:48;;;;;;;12.45;2.22;;;13.00;87.40;;;;;;5023447;28;20401;-71
2021/10/17 05:26:14;;;;;;;2.83;1.58;;;13.00;87.30;;;;;;5027169;28;20029;-71
2021/10/17 05:28:41;;;;;;;8.00;3.10;;;12.90;87.30;;;;;;5022277;28;20476;-71
2021/10/17 05:31:07;;;;;;;12.57;2.58;;;12.90;87.30;;;;;;5039292;28;20029;-71
2021/10/17 05:33:39;;;;;;;11.35;3.97;;;12.80;87.30;;;;;;5021929;28;20120;-71
2021/10/17 05:36:06;;;;;;;12.82;4.25;;;12.90;87.40;;;;;;5026700;28;20108;-71
2021/10/17 05:38:34;;;;;;;8.43;3.38;;;12.90;87.40;;;;;;5029548;28;20053;-71
2021/10/17 05:41:00;;;;;;;10.43;4.65;;;12.90;87.30;;;;;;5016545;28;20026;-71
2021/10/17 05:43:26;;;;;;;9.95;3.00;;;12.90;87.20;;;;;;5014086;28;20503;-71
2021/10/17 05:45:53;;;;;;;7.15;3.40;;;13.00;87.20;;;;;;5015291;28;20460;-71
2021/10/17 05:48:19;;;;;;;4.60;2.38;;;13.00;87.10;;;;;;5022150;28;20026;-71
2021/10/17 05:50:45;;;;;;;11.25;3.30;;;13.00;87.00;;;;;;5029862;28;20028;-71
2021/10/17 05:53:10;;;;;;;6.75;2.92;;;13.00;87.00;;;;;;5018114;28;20026;-71
2021/10/17 05:55:39;;;;;;;1.20;1.10;;;12.90;86.90;;;;;;5023616;28;20419;-71
2021/10/17 05:58:05;;;;;;;5.95;1.98;;;12.90;86.90;;;;;;5017330;28;20044;-71
2021/10/17 06:00:30;;;;;;;11.02;3.67;;;13.00;86.80;;;;;;5014375;28;20026;-71
2021/10/17 06:03:00;;;;;;;2.38;0.90;;;12.90;86.80;;;;;;5044739;28;20481;-71
2021/10/17 06:05:30;;;;;;;3.85;1.45;;;12.90;86.70;;;;;;5027460;28;20067;-71
2021/10/17 06:07:57;;;;;;;8.43;2.60;;;12.90;86.70;;;;;;5028596;28;20022;-71
2021/10/17 06:10:23;;;;;;;7.00;2.78;;;12.90;86.70;;;;;;5028078;28;20388;-71
2021/10/17 06:12:49;;;;;;;11.38;3.38;;;12.90;86.70;;;;;;5025320;28;20932;-72
2021/10/17 06:15:16;;;;;;;2.40;1.65;;;12.90;86.70;;;;;;5029603;28;20017;-71
2021/10/17 06:17:41;;;;;;;18.90;3.60;;;12.80;86.70;;;;;;5027691;28;20033;-71
2021/10/17 06:20:08;;;;;;;4.15;2.05;;;12.90;86.80;;;;;;5027422;28;20017;-71
2021/10/17 06:22:39;;;;;;;3.67;2.08;;;12.80;86.70;;;;;;5029719;28;20516;-71
2021/10/17 06:25:06;;;;;;;2.83;1.63;;;12.80;86.70;;;;;;5027806;28;20025;-71
2021/10/17 06:27:31;;;;;;;3.05;1.77;;;12.80;86.70;;;;;;5029192;28;20021;-71
2021/10/17 06:29:57;;;;;;;4.97;2.50;;;12.80;86.60;;;;;;5017917;28;20548;-71
2021/10/17 06:32:23;;;;;;;2.67;1.88;;;12.70;86.60;;;;;;5025539;28;20384;-71
2021/10/17 06:34:49;;;;;;;3.30;2.45;;;12.70;87.20;;;;;;5014773;28;20061;-71
2021/10/17 06:37:15;;;;;;;3.30;2.15;;;12.70;86.60;;;;;;5013696;28;20045;-71
2021/10/17 06:39:41;;;;;;;9.65;4.20;;;12.70;86.60;;;;;;5024124;28;20523;-71
2021/10/17 06:42:13;;;;;;;2.72;1.90;;;12.70;86.60;;;;;;5016973;28;20359;-71
2021/10/17 06:44:51;;;;;;;11.30;3.78;;;12.70;86.50;;;;;;5022836;28;20032;-71
2021/10/17 06:47:17;;;;;;;6.25;2.20;;;12.70;86.50;;;;;;5017750;28;20026;-71
2021/10/17 06:49:43;;;;;;;9.48;3.17;;;12.70;86.50;;;;;;5032435;28;20036;-71
2021/10/17 06:52:11;;;;;;;2.10;1.10;;;12.70;86.50;;;;;;5020583;28;20481;-71
2021/10/17 06:54:37;;;;;;;4.82;1.63;;;12.70;86.50;;;;;;5027967;28;20424;-71
2021/10/17 06:57:03;;;;;;;13.15;3.30;;;12.70;86.50;;;;;;5023870;28;20053;-71
2021/10/17 06:59:30;;;;;;;2.80;1.90;;;12.70;86.50;;;;;;5021601;28;20036;-71
2021/10/17 07:01:56;;;;;;;6.57;2.58;;;12.80;86.50;;;;;;5015271;28;20026;-70
2021/10/17 07:04:22;;;;;;;6.70;2.03;;;12.70;86.30;;;;;;5022417;28;20397;-76
2021/10/17 07:06:48;;;;;;;4.10;1.98;;;12.80;86.30;;;;;;5020998;28;20026;-76
2021/10/17 07:09:15;;;;;;;1.88;1.30;;;12.70;86.20;;;;;;5019048;28;20033;-74
2021/10/17 07:11:59;;;;;;;6.60;2.83;;;12.80;86.30;;;;;;5029586;28;20030;-74
2021/10/17 07:14:27;;;;;;;4.80;2.33;;;12.80;86.20;;;;;;5024169;28;20032;-71
2021/10/17 07:17:06;;;;;;;9.18;3.00;;;12.80;86.20;;;;;;5022894;28;20061;-71
2021/10/17 07:19:33;;;;;;;6.55;2.40;;;12.80;86.10;;;;;;5018116;28;20129;-71
2021/10/17 07:21:59;;;;;;;5.95;2.67;;;12.80;86.20;;;;;;5022620;28;20029;-71
2021/10/17 07:24:29;;;;;;;4.90;2.50;;;12.80;86.10;;;;;;5023796;28;20025;-71
2021/10/17 07:26:55;;;;;;;5.55;2.38;;;12.80;86.70;;;;;;5021786;28;20029;-71
2021/10/17 07:29:21;;;;;;;4.10;1.85;;;12.80;86.10;;;;;;5017948;28;20806;-71
2021/10/17 07:31:47;;;;;;;3.22;2.20;;;12.80;86.10;;;;;;5021980;28;20048;-71
2021/10/17 07:34:13;;;;;;;5.72;2.47;;;12.80;86.10;;;;;;5021224;28;20032;-71
2021/10/17 07:36:39;;;;;;;4.35;2.00;;;12.80;86.10;;;;;;5017180;28;20405;-71
2021/10/17 07:39:14;;;;;;;5.32;2.10;;;12.80;86.00;;;;;;5025923;28;20040;-71
2021/10/17 07:41:50;;;;;;;7.15;3.10;;;12.80;86.00;;;;;;5017892;28;20037;-76
2021/10/17 07:44:17;;;;;;;10.48;2.83;;;12.80;86.00;;;;;;5021352;28;20029;-70
2021/10/17 07:46:59;;;;;;;9.15;3.95;;;12.80;85.90;;;;;;5024594;28;20033;-70
2021/10/17 07:49:29;;;;;;;1.35;1.20;;;12.90;86.00;;;;;;5019165;28;20036;-70
2021/10/17 07:51:55;;;;;;;4.20;2.35;;;12.90;86.00;;;;;;5026196;28;20032;-70
2021/10/17 07:54:22;;;;;;;14.90;4.65;;;12.90;86.10;;;;;;5029810;28;20033;-72
2021/10/17 07:56:49;;;;;;;3.03;1.55;;;12.80;86.00;;;;;;5018717;28;20453;-72
2021/10/17 07:59:15;;;;;;;10.48;4.05;;;12.90;86.10;;;;;;5021724;28;20108;-71
2021/10/17 08:01:44;;;;;;;10.43;4.20;;;12.90;86.00;;;;;;5027868;28;20021;-71
2021/10/17 08:04:28;;;;;;;13.60;3.85;;;12.90;86.00;;;;;;5020308;28;20092;-71
2021/10/17 08:07:03;;;;;;;10.95;2.72;;;12.90;85.90;;;;;;5014658;28;20033;-71
2021/10/17 08:09:30;;;;;;;10.70;3.92;;;12.90;85.90;;;;;;5014746;28;20390;-71
2021/10/17 08:11:57;;;;;;;8.23;4.25;;;13.00;86.00;;;;;;5013661;28;20030;-72
2021/10/17 08:14:25;;;;;;;7.90;3.10;;;13.00;85.90;;;;;;5027283;28;20030;-71
2021/10/17 08:16:52;;;;;;;8.48;3.28;;;13.00;85.80;;;;;;5039107;28;20029;-72
2021/10/17 08:19:21;;;;;;;8.45;2.83;;;13.00;85.80;;;;;;5024901;28;20038;-71
2021/10/17 08:21:49;;;;;;;4.43;2.42;;;13.00;85.80;;;;;;5019435;28;20389;-72
2021/10/17 08:24:15;;;;;;;10.65;3.78;;;13.00;85.80;;;;;;5020416;28;20036;-72
2021/10/17 08:26:43;;;;;;;13.07;5.13;;;13.10;85.80;;;;;;5021699;28;20077;-71
2021/10/17 08:29:23;;;;;;;5.15;2.72;;;13.10;85.70;;;;;;5039061;28;20124;-71
2021/10/17 08:31:50;;;;;;;10.23;3.63;;;13.10;86.40;;;;;;5021857;28;20116;-71
2021/10/17 08:34:16;;;;;;;9.77;4.40;;;13.00;85.80;;;;;;5017759;28;20021;-72
2021/10/17 08:36:42;;;;;;;7.80;2.80;;;13.10;85.90;;;;;;5019741;28;20995;-72
2021/10/17 08:39:10;;;;;;;10.20;3.35;;;13.10;85.80;;;;;;5014489;28;20025;-71
2021/10/17 08:41:44;;;;;;;;;;;13.10;85.70;;;;;;5019783;28;20036;-71
2021/10/17 08:44:13;;;;;;;8.80;3.97;;;13.10;85.70;;;;;;5030068;28;19909;-71
2021/10/17 08:46:51;;;;;;;5.25;2.78;;;13.10;85.70;;;;;;5014559;28;20493;-71
2021/10/17 08:49:21;;;;;;;11.73;4.18;;;13.10;85.80;;;;;;5020300;28;20436;-71
2021/10/17 08:51:47;;;;;;;2.38;1.65;;;13.10;85.80;;;;;;5027215;28;20029;-71
2021/10/17 08:54:13;;;;;;;19.42;4.45;;;13.10;85.90;;;;;;5009797;28;20041;-73
2021/10/17 08:56:48;;;;;;;13.32;4.53;;;13.10;86.00;;;;;;5022954;28;20099;-72
2021/10/17 08:59:16;;;;;;;6.47;3.25;;;13.10;85.90;;;;;;5015237;28;20392;-76
2021/10/17 09:01:49;;;;;;;14.52;3.58;;;13.10;85.80;;;;;;5019321;28;20060;-71
2021/10/17 09:04:17;;;;;;;13.40;3.58;;;13.10;85.80;;;;;;5015517;28;20112;-71
2021/10/17 09:07:16;;;;;;;6.15;2.35;;;13.20;85.80;;;;;;5026628;28;20096;-71
2021/10/17 09:10:05;;;;;;;3.00;1.58;;;13.20;85.80;;;;;;5025085;28;20064;-71
2021/10/17 09:12:32;;;;;;;8.45;4.10;;;13.20;85.80;;;;;;5019394;28;20037;-71
2021/10/17 09:15:18;;;;;;;13.10;4.68;;;13.20;85.70;;;;;;5016303;28;20021;-72
2021/10/17 09:18:17;;;;;;;4.57;2.20;;;13.20;85.70;;;;;;5016332;28;20072;-71
2021/10/17 09:20:48;;;;;;;7.35;3.10;;;13.20;85.70;;;;;;5016310;28;20109;-71
2021/10/17 09:23:22;;;;;;;11.60;3.40;;;13.20;85.70;;;;;;5016478;28;20029;-71
2021/10/17 09:25:54;;;;;;;14.90;4.28;;;13.20;85.80;;;;;;5013101;28;20062;-72
2021/10/17 09:28:24;;;;;;;9.20;3.35;;;13.20;85.80;;;;;;5015413;28;20069;-71
2021/10/17 09:31:08;;;;;;;8.23;3.97;;;13.20;85.80;;;;;;5016313;28;20032;-75
2021/10/17 09:33:40;;;;;;;5.53;1.58;;;13.20;85.90;;;;;;5015925;28;20025;-74
2021/10/17 09:36:34;;;;;;;4.45;1.52;;;13.20;85.90;;;;;;5027183;28;20053;-72
2021/10/17 09:39:10;;;;;;;9.95;3.40;;;13.30;86.00;;;;;;5018698;28;20092;-72
2021/10/17 09:41:52;;;;;;;7.13;1.80;;;13.20;86.00;;;;;;5028913;28;20025;-72
2021/10/17 09:44:19;;;;;;;7.40;3.88;;;13.20;86.00;;;;;;5017565;28;20029;-71
2021/10/17 09:47:00;;;;;;;10.20;4.05;;;13.20;85.90;;;;;;5015511;28;20028;-73
2021/10/17 09:49:26;;;;;;;7.45;2.28;;;13.30;86.00;;;;;;5019183;28;20029;-71
2021/10/17 09:52:10;;;;;;;5.28;2.38;;;13.20;85.90;;;;;;5019053;28;20440;-71
2021/10/17 09:54:38;;;;;;;;;;;13.20;85.90;;;;;;5022133;28;20078;-72
2021/10/17 09:57:07;;;;;;;9.63;3.45;;;13.20;85.80;;;;;;5028606;28;19921;-72
2021/10/17 09:59:35;;;;;;;11.18;4.00;;;13.20;85.90;;;;;;5027627;28;20072;-72
2021/10/17 10:02:03;;;;;;;7.93;2.75;;;13.30;86.60;;;;;;5031099;28;20038;-72
2021/10/17 10:04:29;;;;;;;7.75;4.38;;;13.30;86.00;;;;;;5027282;28;20457;-72
2021/10/17 10:06:57;;;;;;;3.90;2.58;;;13.30;86.00;;;;;;5023259;28;20052;-72
2021/10/17 10:09:27;;;;;;;6.82;2.20;;;13.40;86.00;;;;;;5032165;28;20134;-72
2021/10/17 10:11:53;;;;;;;14.10;4.18;;;13.30;85.90;;;;;;5016405;28;20061;-72
2021/10/17 10:14:20;;;;;;;7.13;2.78;;;13.40;85.90;;;;;;5020316;28;20056;-73
2021/10/17 10:16:50;;;;;;;12.02;4.50;;;13.40;85.90;;;;;;5017054;28;20022;-71
2021/10/17 10:19:16;;;;;;;14.73;3.65;;;13.40;85.70;;;;;;5028093;28;20037;-72
2021/10/17 10:21:42;;;;;;;11.63;4.95;;;13.50;85.70;;;;;;5027020;28;20096;-72
2021/10/17 10:24:11;;;;;;;15.82;5.13;;;13.50;85.70;;;;;;5030440;28;20038;-72
2021/10/17 10:26:42;;;;;;;11.57;3.90;;;13.50;85.70;;;;;;5024253;28;20034;-72
2021/10/17 10:29:08;;;;;;;15.80;3.00;;;13.60;85.70;;;;;;5030372;28;20045;-72
2021/10/17 10:31:52;;;;;;;3.15;1.40;;;13.60;85.60;;;;;;5023767;28;20033;-73
2021/10/17 10:34:21;;;;;;;4.57;1.88;;;13.60;85.60;;;;;;5022244;28;20056;-72
2021/10/17 10:36:48;;;;;;;6.22;2.75;;;13.60;85.50;;;;;;5025091;28;20068;-72
2021/10/17 10:39:16;;;;;;;9.13;3.17;;;13.60;85.50;;;;;;5019265;28;20033;-71
2021/10/17 10:42:02;;;;;;;11.75;3.40;;;13.60;85.50;;;;;;5032016;28;20032;-72
2021/10/17 10:44:40;;;;;;;4.88;2.33;;;13.60;85.40;;;;;;5034517;28;20492;-72
2021/10/17 10:47:38;;;;;;;8.63;3.30;;;13.60;85.50;;;;;;5023993;28;20080;-72
2021/10/17 10:50:04;;;;;;;15.85;3.83;;;13.60;85.50;;;;;;5030068;28;20463;-71
2021/10/17 10:52:30;;;;;;;7.15;2.97;;;13.60;85.40;;;;;;5027182;28;20025;-72
2021/10/17 10:54:58;;;;;;;10.40;3.80;;;13.60;85.50;;;;;;5021097;28;20116;-72
2021/10/17 10:57:25;;;;;;;2.65;1.67;;;13.60;85.40;;;;;;5029846;28;20484;-72
2021/10/17 10:59:59;;;;;;;2.70;1.85;;;13.60;85.50;;;;;;5030954;28;20568;-72
2021/10/17 11:02:25;;;;;;;7.05;2.60;;;13.60;85.50;;;;;;5028308;28;20034;-72
2021/10/17 11:04:51;;;;;;;8.40;2.28;;;13.70;85.60;;;;;;5024363;28;20026;-72
2021/10/17 11:07:37;;;;;;;10.25;3.10;;;13.60;85.60;;;;;;5027259;28;20461;-71
2021/10/17 11:10:22;;;;;;;10.63;2.45;;;13.60;85.50;;;;;;5025871;28;20033;-71
2021/10/17 11:12:50;;;;;;;4.90;2.95;;;13.70;85.50;;;;;;5022593;28;20033;-72
2021/10/17 11:15:19;;;;;;;11.20;3.92;;;13.70;85.60;;;;;;5029140;28;20045;-71
2021/10/17 11:17:56;;;;;;;8.88;2.70;;;13.70;85.70;;;;;;5029398;28;20528;-71
2021/10/17 11:20:27;;;;;;;8.70;3.38;;;13.80;85.70;;;;;;5026029;28;20469;-71
2021/10/17 11:22:57;;;;;;;6.10;3.10;;;13.80;85.70;;;;;;5025151;28;20036;-71
2021/10/17 11:25:25;;;;;;;12.90;3.70;;;13.80;85.70;;;;;;5023753;28;20029;-71
2021/10/17 11:27:52;;;;;;;9.57;3.83;;;13.80;85.70;;;;;;5026262;28;20032;-72
2021/10/17 11:30:39;;;;;;;6.97;2.97;;;13.80;85.60;;;;;;5030220;28;20044;-72
2021/10/17 11:33:19;;;;;;;9.25;3.80;;;13.90;85.70;;;;;;5025386;28;20030;-72
2021/10/17 11:35:48;;;;;;;5.18;2.70;;;13.90;85.50;;;;;;5027953;28;20065;-72
2021/10/17 11:38:16;;;;;;;11.75;4.43;;;14.00;85.60;;;;;;5027983;28;20041;-71
2021/10/17 11:40:42;;;;;;;13.13;3.75;;;14.00;85.40;;;;;;5026996;28;20037;-71
2021/10/17 11:43:09;;;;;;;7.25;3.17;;;14.00;85.50;;;;;;5028834;28;20421;-71
2021/10/17 11:45:38;;;;;;;6.30;2.80;;;14.00;85.50;;;;;;5026394;28;20481;-77
2021/10/17 11:48:06;;;;;;;5.70;2.63;;;14.00;85.40;;;;;;5028013;28;20037;-72
2021/10/17 11:50:35;;;;;;;7.55;3.05;;;14.00;85.40;;;;;;5027151;28;20029;-71
2021/10/17 11:53:03;;;;;;;14.88;3.80;;;14.00;85.40;;;;;;5028878;28;20037;-72
2021/10/17 11:55:32;;;;;;;4.55;2.15;;;14.10;85.40;;;;;;5030157;28;20037;-72
2021/10/17 11:57:58;;;;;;;9.45;3.30;;;14.10;85.50;;;;;;5025225;28;20393;-71
2021/10/17 12:00:29;;;;;;;5.78;3.33;;;14.10;85.40;;;;;;5029678;28;20084;-78
2021/10/17 12:02:55;;;;;;;13.85;2.65;;;14.10;85.40;;;;;;5026212;28;20033;-73
2021/10/17 12:05:24;;;;;;;6.32;3.10;;;14.10;85.30;;;;;;5023769;28;20068;-71
2021/10/17 12:07:51;;;;;;;8.40;3.85;;;14.20;85.40;;;;;;5031277;28;20037;-71
2021/10/17 12:10:17;;;;;;;3.70;2.20;;;14.20;85.20;;;;;;5024105;28;20030;-71
2021/10/17 12:12:43;;;;;;;6.47;2.42;;;14.20;85.20;;;;;;5019987;28;20036;-71
2021/10/17 12:15:14;;;;;;;1.75;1.58;;;14.20;85.20;;;;;;5024109;28;20018;-71
2021/10/17 12:17:40;;;;;;;7.75;3.25;;;14.20;85.00;;;;;;5021103;28;20481;-72
2021/10/17 12:20:16;;;;;;;6.57;2.97;;;14.20;84.80;;;;;;5016765;28;20026;-72
2021/10/17 12:22:43;;;;;;;7.53;3.65;;;14.20;84.80;;;;;;5026703;28;20045;-71
2021/10/17 12:25:13;;;;;;;6.93;3.45;;;14.20;84.80;;;;;;5020275;28;20026;-72
2021/10/17 12:27:42;;;;;;;6.80;2.20;;;14.30;84.70;;;;;;5021580;28;20030;-75
2021/10/17 12:30:09;;;;;;;9.40;3.47;;;14.20;84.80;;;;;;5016460;28;20026;-72
2021/10/17 12:32:50;;;;;;;6.53;2.33;;;14.30;84.80;;;;;;5018983;28;20083;-67
2021/10/17 12:35:32;;;;;;;10.23;3.42;;;14.20;84.60;;;;;;5021343;28;20029;-72
2021/10/17 12:38:10;;;;;;;7.25;2.83;;;14.30;84.40;;;;;;5017062;28;20050;-72
2021/10/17 12:40:57;;;;;;;6.68;3.33;;;14.30;84.60;;;;;;5021163;28;20083;-72
2021/10/17 12:43:30;;;;;;;1.92;1.50;;;14.30;84.50;;;;;;5021737;28;20030;-72
2021/10/17 12:46:08;;;;;;;1.63;1.52;;;14.30;84.70;;;;;;5018910;28;20061;-73
2021/10/17 12:48:39;;;;;;;7.43;4.82;;;14.30;84.50;;;;;;5018528;28;20034;-71
2021/10/17 12:51:28;;;;;;;6.30;2.75;;;14.30;84.50;;;;;;5022528;28;20439;-71
2021/10/17 12:54:09;;;;;;;1.77;1.60;;;14.30;85.00;;;;;;5023534;28;20257;-71